Norwegian Spirit — C6TQ6 — position and weather

sailwx.info

Track history (hours):
 
Tides and Currents Weather Stations Pressure Air Temp Water Temp Dewpoint Dewpoint Depression Visibility Wind Speed Wind Dir Waves Ship Positions

Norwegian Spirit

Operator: Norwegian Cruise Line

Last reported at 2019-Jun-16 23:30 UTC. Time now 2019-Jun-17 18:52 UTC.
Position N 61°46' E 004°23'.

Type: Passenger vessel. MMSI: 311746000.

Date/timePositionNaut miles runAvg speedWind from/ knotsBaromVisibWave heightAir tempDewpointWater temp
2019-Jun-16 23:30N 61°46' E 004°23'1021.0
2019-Jun-16 23:00N 61°36' E 004°17'1021.1
2019-Jun-16 22:30N 61°26' E 004°16'1121.3
2019-Jun-16 22:00N 61°15' E 004°16'1121.4
2019-Jun-16 21:30N 61°05' E 004°15'1121.3
2019-Jun-16 21:00N 60°54' E 004°15'1121.0
2019-Jun-16 20:30N 60°43' E 004°15'1121.1
2019-Jun-16 20:00N 60°33' E 004°16'4768.3
2019-Jun-16 20:00N 60°36' E 004°12'1428.4 180 / 131015.027.0 14.010.512.0
2019-Jun-16 19:30N 60°22' E 004°19'1121.2
2019-Jun-16 19:00N 60°12' E 004°22'1121.3
2019-Jun-16 18:30N 60°01' E 004°24'1020.9
2019-Jun-16 18:00N 59°51' E 004°26'211599.9
2019-Jun-16 18:00N 60°12' E 004°18'3263.7 180 / 101015.010.8 14.0 14.0
2019-Jun-16 17:30N 59°41' E 004°28'1020.6
2019-Jun-16 17:00N 59°32' E 004°39'5338.3
2019-Jun-16 17:00N 59°30' E 004°30'1326.0 180 / 101015.010.8 14.0 14.0
2019-Jun-16 16:30N 59°24' E 004°51'1121.4
2019-Jun-16 16:00N 59°14' E 005°01'1020.0
2019-Jun-16 15:30N 59°06' E 005°13'918.3
2019-Jun-16 15:00N 59°06' E 005°31'714.9
2019-Jun-16 14:30N 59°01' E 005°40'3 5.3
2019-Jun-16 13:59N 58°58' E 005°44'0 0.0
2019-Jun-16 13:29N 58°58' E 005°44'0 0.0
2019-Jun-16 12:59N 58°58' E 005°44'0 0.0
2019-Jun-16 12:29N 58°58' E 005°44'0 0.0
2019-Jun-16 11:59N 58°58' E 005°44'0 0.0
2019-Jun-16 11:29N 58°58' E 005°44'0 0.0
2019-Jun-16 10:59N 58°58' E 005°44'0 0.0
2019-Jun-16 10:29N 58°58' E 005°44'0 0.0
2019-Jun-16 09:59N 58°58' E 005°44'0 0.0
2019-Jun-16 09:29N 58°58' E 005°44'0 0.0
2019-Jun-16 08:59N 58°58' E 005°44'0 0.0
2019-Jun-16 08:29N 58°58' E 005°44'0 0.0
2019-Jun-16 07:59N 58°58' E 005°44'0 0.0
2019-Jun-16 07:29N 58°58' E 005°44'0 0.0
2019-Jun-16 06:59N 58°58' E 005°44'0 0.0
2019-Jun-16 06:29N 58°58' E 005°44'0 0.0
2019-Jun-16 05:59N 58°58' E 005°44'0 0.2
2019-Jun-16 05:30N 58°59' E 005°44'2 3.9
2019-Jun-16 05:00N 59°00' E 005°41'5 9.3
2019-Jun-16 04:30N 59°01' E 005°33'917.2
2019-Jun-16 04:00N 58°53' E 005°32'611.2
2019-Jun-16 03:30N 58°48' E 005°25'919.0
2019-Jun-16 03:00N 58°40' E 005°17'1019.8
2019-Jun-16 02:30N 58°31' E 005°10'1020.2
2019-Jun-16 02:00N 58°22' E 005°02'1020.2
2019-Jun-16 01:30N 58°12' E 004°56'1020.0
2019-Jun-16 01:00N 58°02' E 004°53'1020.7
2019-Jun-16 00:30N 57°52' E 004°50'1020.7
2019-Jun-16 00:00N 57°41' E 004°48'1020.3
2019-Jun-15 23:29N 57°31' E 004°45'1020.1
2019-Jun-15 22:59N 57°21' E 004°42'1020.1
2019-Jun-15 22:29N 57°11' E 004°40'1020.0
2019-Jun-15 21:59N 57°01' E 004°38'4422.1
2019-Jun-15 20:00N 56°18' E 004°24'2424.2 280 / 10
2019-Jun-15 19:00N 55°54' E 004°18'3030.0 270 / 81013.010.8 15.0 14.0
2019-Jun-15 18:00N 55°24' E 004°18'3 3.4 270 / 81013.010.8 15.0 14.0
2019-Jun-15 17:00N 55°24' E 004°12'1818.3 270 / 81013.010.8 15.0 14.0
2019-Jun-15 16:00N 55°06' E 004°06'10518.0 280 / 51012.010.8 14.010.515.0
2019-Jun-15 10:10N 53°26' E 003°11'1319.6
2019-Jun-15 09:29N 53°13' E 003°09'1019.6
2019-Jun-15 09:00N 53°04' E 003°05'1019.4
2019-Jun-15 08:30N 52°55' E 003°01'1019.0
2019-Jun-15 08:00N 52°45' E 002°57'4419.2
2019-Jun-15 08:00N 52°42' E 002°54'611.8 290 / 10
2019-Jun-15 07:30N 52°36' E 002°52'1018.8
2019-Jun-15 07:00N 52°28' E 002°45'816.9
2019-Jun-15 06:30N 52°20' E 002°43'815.7
2019-Jun-15 06:00N 52°12' E 002°42'815.8
2019-Jun-15 05:30N 52°04' E 002°42'816.1
2019-Jun-15 05:00N 51°56' E 002°41'4293.9
2019-Jun-15 05:00N 51°54' E 002°36'511.1 270 / 31011.010.8 12.0 8.313.0
2019-Jun-15 04:30N 51°49' E 002°37'816.8
2019-Jun-15 04:00N 51°42' E 002°29'917.1
2019-Jun-15 03:30N 51°35' E 002°21'917.4
2019-Jun-15 03:00N 51°28' E 002°13'917.6
2019-Jun-15 02:30N 51°19' E 002°09'817.0
2019-Jun-15 02:00N 51°13' E 002°00'917.9
2019-Jun-15 01:30N 51°08' E 001°48'918.4
2019-Jun-15 01:00N 51°02' E 001°38'1227430.8
2019-Jun-15 01:00N 51°00' W 001°36'116240.3 290 / 91013.027.0 14.010.513.0
2019-Jun-15 00:30N 50°54' E 001°28'918.6
2019-Jun-15 00:00N 50°45' E 001°25'917.7
2019-Jun-14 23:28N 50°37' E 001°16'817.9
2019-Jun-14 23:00N 50°32' E 001°06'917.2
2019-Jun-14 22:28N 50°28' E 000°53'817.4
2019-Jun-14 22:00N 50°26' E 000°41'917.5
2019-Jun-14 21:28N 50°25' E 000°26'817.6
2019-Jun-14 21:00N 50°23' E 000°13'5338.9
2019-Jun-14 21:00N 50°18' E 000°12'917.7 090 / 10
2019-Jun-14 20:30N 50°22' W 000°00'918.1
2019-Jun-14 20:00N 50°21' W 000°14'918.5
2019-Jun-14 19:30N 50°25' W 000°28'918.9
2019-Jun-14 19:00N 50°31' W 000°39'1019.6
2019-Jun-14 18:30N 50°37' W 000°51'815.7
2019-Jun-14 18:00N 50°43' W 000°60'815.1
2019-Jun-14 17:31N 50°46' W 001°11'611.0
2019-Jun-14 17:00N 50°49' W 001°18'510.4
2019-Jun-14 16:30N 50°53' W 001°23'2 2.9
2019-Jun-14 15:59N 50°54' W 001°25'0 0.0
2019-Jun-14 15:26N 50°54' W 001°25'0 0.0
2019-Jun-14 13:41N 50°54' W 001°25'0 0.0
2019-Jun-14 13:17N 50°54' W 001°25'0 0.0
2019-Jun-14 13:00N 50°54' W 001°25'0 0.0
2019-Jun-14 12:30N 50°54' W 001°25'0 0.0
2019-Jun-14 12:00N 50°54' W 001°25'0 0.0
2019-Jun-14 11:30N 50°54' W 001°25'0 0.0
2019-Jun-14 10:57N 50°54' W 001°25'0 0.0
2019-Jun-14 10:30N 50°54' W 001°25'0 0.0
2019-Jun-14 09:56N 50°54' W 001°25'0 0.0
2019-Jun-14 09:29N 50°54' W 001°25'0 0.0
2019-Jun-14 08:56N 50°54' W 001°25'0 0.0
2019-Jun-14 08:29N 50°54' W 001°25'0 0.0
2019-Jun-14 08:00N 50°54' W 001°25'0 0.0
2019-Jun-14 07:30N 50°54' W 001°25'0 0.0
2019-Jun-14 07:00N 50°54' W 001°25'0 0.0
2019-Jun-14 06:30N 50°54' W 001°25'0 0.0
2019-Jun-14 06:00N 50°54' W 001°25'0 0.0
2019-Jun-14 05:30N 50°54' W 001°25'0 0.0
2019-Jun-14 05:00N 50°54' W 001°25'0 0.0
2019-Jun-14 04:30N 50°54' W 001°25'0 0.1
2019-Jun-14 04:00N 50°54' W 001°25'2 4.7
2019-Jun-14 03:30N 50°52' W 001°23'5 9.1
2019-Jun-14 03:00N 50°49' W 001°18'4 8.0
2019-Jun-14 02:30N 50°46' W 001°13'917.1
2019-Jun-14 02:00N 50°43' W 001°01'611.2
2019-Jun-14 01:30N 50°39' W 000°54'714.7
2019-Jun-14 01:00N 50°36' W 000°44'918.7
2019-Jun-14 00:30N 50°33' W 000°30'1121.1
2019-Jun-13 23:59N 50°31' W 000°13'1721.1
2019-Jun-13 23:12N 50°31' E 000°13'421.0
2019-Jun-13 23:00N 50°31' E 000°20'1120.4
2019-Jun-13 22:29N 50°35' E 000°35'1020.0
2019-Jun-13 22:00N 50°41' E 000°47'1019.2
2019-Jun-13 21:31N 50°46' E 000°59'918.3
2019-Jun-13 21:00N 50°52' E 001°11'917.7
2019-Jun-13 20:30N 50°58' E 001°22'917.5
2019-Jun-13 20:00N 51°04' E 001°31'4273.3
2019-Jun-13 20:00N 51°00' E 001°30'1326.0 220 / 25
2019-Jun-13 19:30N 51°10' E 001°42'918.6
2019-Jun-13 19:00N 51°18' E 001°50'1019.3
2019-Jun-13 18:30N 51°26' E 001°59'918.6
2019-Jun-13 18:00N 51°22' E 002°12'1019.5
2019-Jun-13 17:30N 51°23' E 002°28'918.6
2019-Jun-13 17:00N 51°23' E 002°43'612.9
2019-Jun-13 16:30N 51°25' E 002°53'917.9
2019-Jun-13 16:00N 51°24' E 003°07'510.0
2019-Jun-13 15:30N 51°20' E 003°12'0 0.0
2019-Jun-13 15:00N 51°20' E 003°12'0 0.0
2019-Jun-13 14:30N 51°20' E 003°12'0 0.0
2019-Jun-13 14:00N 51°20' E 003°12'0 0.0
2019-Jun-13 13:30N 51°20' E 003°12'0 0.0
2019-Jun-13 13:00N 51°20' E 003°12'2463.5
2019-Jun-13 13:00N 51°18' E 003°12'2 4.9 190 / 51010.010.8 13.0 9.413.0
2019-Jun-13 12:30N 51°20' E 003°12'0 0.0
2019-Jun-13 12:00N 51°20' E 003°12'0 0.0
2019-Jun-13 11:27N 51°20' E 003°12'0 0.0
2019-Jun-13 10:54N 51°20' E 003°12'0 0.0
2019-Jun-13 10:30N 51°20' E 003°12'0 0.0
2019-Jun-13 09:57N 51°20' E 003°12'0 0.0
2019-Jun-13 09:30N 51°20' E 003°12'0 0.0
2019-Jun-13 09:00N 51°20' E 003°12'0 0.0
2019-Jun-13 08:30N 51°20' E 003°12'0 0.0
2019-Jun-13 08:00N 51°20' E 003°12'0 0.0
2019-Jun-13 07:30N 51°20' E 003°12'0 0.0
2019-Jun-13 07:00N 51°20' E 003°12'0 0.0
2019-Jun-13 06:30N 51°20' E 003°12'0 0.0
2019-Jun-13 06:00N 51°20' E 003°12'0 0.0
2019-Jun-13 05:30N 51°20' E 003°12'0 0.0
2019-Jun-13 05:00N 51°20' E 003°12'1 2.5
2019-Jun-13 04:30N 51°22' E 003°12'815.4
2019-Jun-13 04:01N 51°25' E 003°00'917.1
2019-Jun-13 03:30N 51°24' E 002°47'714.7
2019-Jun-13 03:00N 51°22' E 002°35'713.2
2019-Jun-13 02:30N 51°29' E 002°34'1019.5
2019-Jun-13 01:58N 51°39' E 002°39'919.2
2019-Jun-13 01:29N 51°48' E 002°38'1019.0
2019-Jun-13 00:57N 51°58' E 002°42'1219.1
2019-Jun-13 00:19N 52°07' E 002°55'618.9
2019-Jun-13 00:00N 52°11' E 003°02'6408.1
2019-Jun-13 00:00N 52°12' E 003°12'5 9.4 190 / 91008.027.0 13.0 9.412.0
2019-Jun-12 23:30N 52°16' E 003°15'918.8
2019-Jun-12 23:01N 52°23' E 003°26'918.6
2019-Jun-12 22:30N 52°29' E 003°38'918.6
2019-Jun-12 22:00N 52°31' E 003°52'918.7
2019-Jun-12 21:30N 52°31' E 004°08'917.7
2019-Jun-12 21:00N 52°30' E 004°22'713.9
2019-Jun-12 20:31N 52°28' E 004°33'2 4.3
2019-Jun-12 20:00N 52°28' E 004°36'1 1.3
2019-Jun-12 19:31N 52°28' E 004°38'3 5.5
2019-Jun-12 19:00N 52°27' E 004°42'4 7.2
2019-Jun-12 18:30N 52°26' E 004°47'3 6.7
2019-Jun-12 18:01N 52°25' E 004°52'3 5.0
2019-Jun-12 17:31N 52°23' E 004°55'0 0.5
2019-Jun-12 17:00N 52°23' E 004°55'0 0.0
2019-Jun-12 16:30N 52°23' E 004°55'0 0.0
2019-Jun-12 16:00N 52°23' E 004°55'0 0.0
2019-Jun-12 15:30N 52°23' E 004°55'0 0.0
2019-Jun-12 15:00N 52°23' E 004°55'0 0.0
2019-Jun-12 14:30N 52°23' E 004°55'0 0.0
2019-Jun-12 14:00N 52°23' E 004°55'30850388.2
2019-Jun-12 14:00N 51°18' W 003°12'308623.8 360 / 21007.010.8 14.010.511.0
2019-Jun-12 13:30N 52°23' E 004°55'0 0.0
2019-Jun-12 13:00N 52°23' E 004°55'0 0.0
2019-Jun-12 12:30N 52°23' E 004°55'0 0.0
2019-Jun-12 11:57N 52°23' E 004°55'0 0.0
2019-Jun-12 11:30N 52°23' E 004°55'0 0.0
2019-Jun-12 10:57N 52°23' E 004°55'0 0.0
2019-Jun-12 10:30N 52°23' E 004°55'0 0.0
2019-Jun-12 10:00N 52°23' E 004°55'0 0.0
2019-Jun-12 09:30N 52°23' E 004°55'0 0.0
2019-Jun-12 09:00N 52°23' E 004°55'0 0.0
2019-Jun-12 08:30N 52°23' E 004°55'0 0.0
2019-Jun-12 08:00N 52°23' E 004°55'0 0.0
2019-Jun-12 07:30N 52°23' E 004°55'0 0.0
2019-Jun-12 07:00N 52°23' E 004°55'0 0.0
2019-Jun-12 06:30N 52°23' E 004°55'0 0.0
2019-Jun-12 05:57N 52°23' E 004°55'0 0.0
2019-Jun-12 05:30N 52°23' E 004°55'0 0.0
2019-Jun-12 05:00N 52°23' E 004°55'1 1.9
2019-Jun-12 04:31N 52°23' E 004°54'3 5.6
2019-Jun-12 04:01N 52°25' E 004°51'4 7.4
2019-Jun-12 03:30N 52°26' E 004°45'4 7.8
2019-Jun-12 03:00N 52°28' E 004°39'3 2.8
2019-Jun-12 02:01N 52°28' E 004°34'3 6.0
2019-Jun-12 01:31N 52°28' E 004°30'713.3
2019-Jun-12 01:00N 52°30' E 004°19'815.4
2019-Jun-12 00:30N 52°32' E 004°07'1019.0
2019-Jun-12 00:00N 52°39' E 003°57'918.9
2019-Jun-11 23:31N 52°49' E 003°58'918.8
2019-Jun-11 23:00N 52°58' E 004°01'918.8
2019-Jun-11 22:30N 53°04' E 004°12'1019.5
2019-Jun-11 22:00N 53°11' E 004°25'918.8
2019-Jun-11 21:30N 53°19' E 004°31'1019.4
2019-Jun-11 21:00N 53°29' E 004°35'298.8
2019-Jun-11 21:00N 53°30' E 004°36'1518.1 220 / 15
2019-Jun-11 20:11N 53°44' E 004°44'211.9
2019-Jun-11 20:00N 53°42' E 004°42'6020.0 220 / 15
2019-Jun-11 17:00N 54°42' E 004°48'1212.5 080 / 61011.0 1.1 13.0 13.0
2019-Jun-11 16:00N 54°54' E 004°42'3129.7 320 / 201011.0 2.2 13.0 9.413.0
2019-Jun-11 14:57N 55°24' E 004°30'5420.0
2019-Jun-11 12:16N 56°18' E 004°24'520.4
2019-Jun-11 12:00N 56°23' E 004°24'1020.2
2019-Jun-11 11:30N 56°33' E 004°22'1020.4
2019-Jun-11 11:00N 56°44' E 004°21'1020.3
2019-Jun-11 10:30N 56°54' E 004°20'1020.5
2019-Jun-11 10:00N 57°04' E 004°18'1020.6
2019-Jun-11 09:29N 57°14' E 004°16'1020.7
2019-Jun-11 09:00N 57°24' E 004°16'1120.7
2019-Jun-11 08:30N 57°35' E 004°14'1020.7
2019-Jun-11 08:00N 57°45' E 004°12'3216.8
2019-Jun-11 08:00N 57°42' E 004°12'1327.2 020 / 211020.010.8 13.0 7.312.0
2019-Jun-11 07:30N 57°55' E 004°11'1020.6
2019-Jun-11 07:00N 58°06' E 004°10'1020.5
2019-Jun-11 06:31N 58°16' E 004°08'816.3
2019-Jun-11 06:00N 58°24' E 004°06'2318.3 020 / 141020.010.8 13.0 12.0
2019-Jun-11 05:59N 58°26' E 004°07'1019.8
2019-Jun-11 05:30N 58°36' E 004°06'1020.1
2019-Jun-11 05:01N 58°45' E 004°04'4241.5
2019-Jun-11 05:00N 58°42' E 004°00'1427.9 030 / 61010.010.8 12.0 8.312.0
2019-Jun-11 04:29N 58°56' E 004°02'1020.6
2019-Jun-11 04:00N 59°06' E 004°01'1020.4
2019-Jun-11 03:30N 59°16' E 004°00'1020.7
2019-Jun-11 03:00N 59°27' E 003°59'1020.7
2019-Jun-11 02:30N 59°37' E 004°00'1020.6
2019-Jun-11 02:00N 59°47' E 004°01'1020.9
2019-Jun-11 01:30N 59°58' E 004°01'1020.7
2019-Jun-11 01:00N 60°08' E 004°01'1020.6
2019-Jun-11 00:30N 60°18' E 004°01'1020.3
2019-Jun-11 00:00N 60°28' E 004°05'1020.3
2019-Jun-10 23:30N 60°38' E 004°11'1020.0
2019-Jun-10 23:00N 60°47' E 004°19'919.0
2019-Jun-10 22:30N 60°51' E 004°37'713.2
2019-Jun-10 22:00N 60°57' E 004°42'1020.0
2019-Jun-10 21:30N 61°03' E 004°58'918.7
2019-Jun-10 21:00N 61°05' E 005°17'918.8
2019-Jun-10 20:30N 61°06' E 005°36'918.7
2019-Jun-10 20:00N 61°08' E 005°55'917.9
2019-Jun-10 19:30N 61°07' E 006°13'917.4
2019-Jun-10 19:00N 61°07' E 006°31'815.8
2019-Jun-10 18:30N 61°10' E 006°47'918.4
2019-Jun-10 18:00N 61°04' E 007°02'41125.6
2019-Jun-10 18:00N 61°00' E 007°00'4 8.8 310 / 101020.010.8 14.0 13.0
2019-Jun-10 17:29N 60°57' E 007°07'5 9.7
2019-Jun-10 17:00N 60°53' E 007°08'1 1.5
2019-Jun-10 16:28N 60°52' E 007°07'0 0.0
2019-Jun-10 15:58N 60°52' E 007°07'0 0.0
2019-Jun-10 15:28N 60°52' E 007°07'0 0.0
2019-Jun-10 14:58N 60°52' E 007°07'0 0.0
2019-Jun-10 14:28N 60°52' E 007°07'0 0.0
2019-Jun-10 13:58N 60°52' E 007°07'0 0.0
2019-Jun-10 13:28N 60°52' E 007°07'0 0.1
2019-Jun-10 12:46N 60°52' E 007°07'0 0.1
2019-Jun-10 12:28N 60°52' E 007°07'0 0.0
2019-Jun-10 11:58N 60°52' E 007°07'0 0.0
2019-Jun-10 11:28N 60°52' E 007°07'0 0.0
2019-Jun-10 10:58N 60°52' E 007°07'0 0.0
2019-Jun-10 10:25N 60°52' E 007°07'0 0.0
2019-Jun-10 09:58N 60°52' E 007°07'0 0.0
2019-Jun-10 09:28N 60°52' E 007°07'0 0.0
2019-Jun-10 08:58N 60°52' E 007°07'0 0.0
2019-Jun-10 08:28N 60°52' E 007°07'0 0.0
2019-Jun-10 07:58N 60°52' E 007°07'0 0.0
2019-Jun-10 07:28N 60°52' E 007°07'0 0.0
2019-Jun-10 06:58N 60°52' E 007°07'0 0.0
2019-Jun-10 06:30N 60°52' E 007°07'1 1.2
2019-Jun-10 06:00N 60°52' E 007°08'4 8.9
2019-Jun-10 05:30N 60°57' E 007°09'713.5
2019-Jun-10 05:00N 61°02' E 007°02'714.2
2019-Jun-10 04:30N 61°08' E 006°53'714.7
2019-Jun-10 04:00N 61°11' E 006°39'5494.1
2019-Jun-10 04:00N 61°06' E 006°42'613.1 310 / 51014.010.8 13.0 9.414.0
2019-Jun-10 03:30N 61°06' E 006°29'815.0
2019-Jun-10 02:59N 61°07' E 006°13'815.3
2019-Jun-10 02:30N 61°08' E 005°58'815.2
2019-Jun-10 02:00N 61°07' E 005°42'815.9
2019-Jun-10 01:30N 61°04' E 005°27'816.0
2019-Jun-10 01:00N 61°06' E 005°12'815.4
2019-Jun-10 00:30N 61°12' E 005°01'815.7
2019-Jun-10 00:00N 61°15' E 004°45'918.6
2019-Jun-09 23:30N 61°17' E 004°27'1020.0
2019-Jun-09 23:00N 61°27' E 004°25'1020.2
2019-Jun-09 22:30N 61°37' E 004°25'1020.0
2019-Jun-09 22:00N 61°47' E 004°29'1020.2
2019-Jun-09 21:30N 61°56' E 004°36'1020.3
2019-Jun-09 21:00N 62°05' E 004°45'1019.8
2019-Jun-09 20:30N 62°14' E 004°57'1019.9
2019-Jun-09 20:00N 62°21' E 005°12'4428.1
2019-Jun-09 20:00N 62°18' E 005°06'1428.0 220 / 20
2019-Jun-09 19:30N 62°27' E 005°29'1019.8
2019-Jun-09 19:00N 62°27' E 005°50'918.0
2019-Jun-09 18:28N 62°23' E 006°08'918.7
2019-Jun-09 18:00N 62°25' E 006°27'1118.6
2019-Jun-09 17:26N 62°27' E 006°49'716.8
2019-Jun-09 17:00N 62°20' E 006°56'38666137.2
2019-Jun-09 17:00N 62°18' W 006°54'389792.6 340 / 171010.010.8 15.0 14.0
2019-Jun-09 16:30N 62°12' E 007°02'713.7
2019-Jun-09 16:00N 62°05' E 007°02'4 9.1
2019-Jun-09 15:30N 62°06' E 007°11'0 0.8
2019-Jun-09 14:59N 62°06' E 007°12'0 0.0
2019-Jun-09 14:29N 62°06' E 007°12'0 0.0
2019-Jun-09 13:59N 62°06' E 007°12'0 0.0
2019-Jun-09 13:29N 62°06' E 007°12'0 0.0
2019-Jun-09 12:59N 62°06' E 007°12'0 0.0
2019-Jun-09 12:24N 62°06' E 007°12'0 0.0
2019-Jun-09 11:59N 62°06' E 007°12'0 0.0
2019-Jun-09 11:29N 62°06' E 007°12'0 0.0
2019-Jun-09 10:59N 62°06' E 007°12'0 0.0
2019-Jun-09 10:29N 62°06' E 007°12'0 0.0
2019-Jun-09 09:59N 62°06' E 007°12'0 0.0
2019-Jun-09 09:29N 62°06' E 007°12'0 0.0
2019-Jun-09 08:59N 62°06' E 007°12'0 0.0
2019-Jun-09 08:29N 62°06' E 007°12'0 0.0
2019-Jun-09 07:59N 62°06' E 007°12'0 0.0
2019-Jun-09 07:29N 62°06' E 007°12'0 0.0
2019-Jun-09 06:44N 62°06' E 007°12'0 0.0
2019-Jun-09 06:26N 62°06' E 007°12'0 0.0
2019-Jun-09 05:56N 62°06' E 007°12'0 0.0
2019-Jun-09 05:26N 62°06' E 007°12'0 0.2
2019-Jun-09 05:00N 62°06' E 007°12'7 6.8
2019-Jun-09 04:00N 62°09' E 006°58'918.1
2019-Jun-09 03:30N 62°18' E 007°01'918.1
2019-Jun-09 03:00N 62°26' E 006°53'917.7
2019-Jun-09 02:30N 62°26' E 006°34'1020.2
2019-Jun-09 02:00N 62°23' E 006°14'816.3
2019-Jun-09 01:30N 62°26' E 005°58'715.1
2019-Jun-09 01:00N 62°30' E 005°44'1020.3
2019-Jun-09 00:30N 62°34' E 005°23'1020.4
2019-Jun-09 00:00N 62°38' E 005°02'1020.5
2019-Jun-08 23:30N 62°41' E 004°42'1020.8
2019-Jun-08 23:00N 62°45' E 004°21'5318.8
2019-Jun-08 23:00N 62°48' E 004°12'611.6 050 / 25
2019-Jun-08 22:30N 62°50' E 004°00'1020.4
2019-Jun-08 22:00N 62°54' E 003°40'169.0
2019-Jun-08 22:00N 62°54' E 003°42'1122.8 050 / 25
2019-Jun-08 21:30N 62°58' E 003°19'1020.3
2019-Jun-08 21:00N 63°01' E 002°58'2179.1
2019-Jun-08 21:00N 63°00' E 003°00'2222.5 050 / 25
2019-Jun-08 20:00N 63°12' E 002°18'2019.8 050 / 191013.0 0.1 9.0 4.910.0
2019-Jun-08 19:00N 63°18' E 001°36'2019.8 050 / 191013.0 0.1 9.0 4.910.0
2019-Jun-08 18:00N 63°24' E 000°54'2019.7 050 / 191013.0 0.1 9.0 4.910.0
2019-Jun-08 17:00N 63°30' E 000°12'18523.1 050 / 191013.0 0.1 9.0 4.910.0
2019-Jun-08 09:00N 64°54' W 006°06'7 6.5 230 / 201010.0 0.1 5.0-2.5 6.0
2019-Jun-08 08:00N 64°48' W 006°00'2423.6 230 / 201010.0 0.1 5.0-2.5 6.0
2019-Jun-08 07:00N 65°00' W 006°48'2121.1 240 / 201008.0 0.1 5.0-2.5 6.0
2019-Jun-08 06:00N 65°06' W 007°36'9223.1 030 / 161021.0 0.1 5.0-2.5 6.0
2019-Jun-08 02:00N 65°48' W 010°54'8120.3 350 / 351012.0 1.1 3.0-2.0 5.0
2019-Jun-07 22:00N 66°18' W 014°00'2726.9 360 / 30
2019-Jun-07 21:00N 66°30' W 015°00'1919.1 030 / 161020.027.0 10.0 6.010.0
2019-Jun-07 20:00N 66°30' W 015°48'4522.4 030 / 161020.027.0 10.0 6.010.0
2019-Jun-07 18:00N 66°18' W 017°36'25 1.7 070 / 151020.0 10.0 6.010.0
2019-Jun-07 03:00N 66°06' W 018°30'10325.7 100 / 191024.027.0 3.0-2.0 7.0
2019-Jun-06 23:00N 66°42' W 022°30'   360 / 101016.010.8 9.0 10.0
Track history (hours):
 
Tides and Currents Weather Stations Pressure Air Temp Water Temp Dewpoint Dewpoint Depression Visibility Wind Speed Wind Dir Waves Ship Positions

Norwegian Spirit

Operator: Norwegian Cruise Line

Last reported at 2019-Jun-16 23:30 UTC. Time now 2019-Jun-17 18:52 UTC.
Position N 61°46' E 004°23'.

Type: Passenger vessel. MMSI: 311746000.

Date/timePositionNaut miles runAvg speedWind from/ knotsBaromVisibWave heightAir tempDewpointWater temp
2019-Jun-16 23:30N 61°46' E 004°23'1021.0
2019-Jun-16 23:00N 61°36' E 004°17'1021.1
2019-Jun-16 22:30N 61°26' E 004°16'1121.3
2019-Jun-16 22:00N 61°15' E 004°16'1121.4
2019-Jun-16 21:30N 61°05' E 004°15'1121.3
2019-Jun-16 21:00N 60°54' E 004°15'1121.0
2019-Jun-16 20:30N 60°43' E 004°15'1121.1
2019-Jun-16 20:00N 60°33' E 004°16'4768.3
2019-Jun-16 20:00N 60°36' E 004°12'1428.4 180 / 131015.027.0 14.010.512.0
2019-Jun-16 19:30N 60°22' E 004°19'1121.2
2019-Jun-16 19:00N 60°12' E 004°22'1121.3
2019-Jun-16 18:30N 60°01' E 004°24'1020.9
2019-Jun-16 18:00N 59°51' E 004°26'211599.9
2019-Jun-16 18:00N 60°12' E 004°18'3263.7 180 / 101015.010.8 14.0 14.0
2019-Jun-16 17:30N 59°41' E 004°28'1020.6
2019-Jun-16 17:00N 59°32' E 004°39'5338.3
2019-Jun-16 17:00N 59°30' E 004°30'1326.0 180 / 101015.010.8 14.0 14.0
2019-Jun-16 16:30N 59°24' E 004°51'1121.4
2019-Jun-16 16:00N 59°14' E 005°01'1020.0
2019-Jun-16 15:30N 59°06' E 005°13'918.3
2019-Jun-16 15:00N 59°06' E 005°31'714.9
2019-Jun-16 14:30N 59°01' E 005°40'3 5.3
2019-Jun-16 13:59N 58°58' E 005°44'0 0.0
2019-Jun-16 13:29N 58°58' E 005°44'0 0.0
2019-Jun-16 12:59N 58°58' E 005°44'0 0.0
2019-Jun-16 12:29N 58°58' E 005°44'0 0.0
2019-Jun-16 11:59N 58°58' E 005°44'0 0.0
2019-Jun-16 11:29N 58°58' E 005°44'0 0.0
2019-Jun-16 10:59N 58°58' E 005°44'0 0.0
2019-Jun-16 10:29N 58°58' E 005°44'0 0.0
2019-Jun-16 09:59N 58°58' E 005°44'0 0.0
2019-Jun-16 09:29N 58°58' E 005°44'0 0.0
2019-Jun-16 08:59N 58°58' E 005°44'0 0.0
2019-Jun-16 08:29N 58°58' E 005°44'0 0.0
2019-Jun-16 07:59N 58°58' E 005°44'0 0.0
2019-Jun-16 07:29N 58°58' E 005°44'0 0.0
2019-Jun-16 06:59N 58°58' E 005°44'0 0.0
2019-Jun-16 06:29N 58°58' E 005°44'0 0.0
2019-Jun-16 05:59N 58°58' E 005°44'0 0.2
2019-Jun-16 05:30N 58°59' E 005°44'2 3.9
2019-Jun-16 05:00N 59°00' E 005°41'5 9.3
2019-Jun-16 04:30N 59°01' E 005°33'917.2
2019-Jun-16 04:00N 58°53' E 005°32'611.2
2019-Jun-16 03:30N 58°48' E 005°25'919.0
2019-Jun-16 03:00N 58°40' E 005°17'1019.8
2019-Jun-16 02:30N 58°31' E 005°10'1020.2
2019-Jun-16 02:00N 58°22' E 005°02'1020.2
2019-Jun-16 01:30N 58°12' E 004°56'1020.0
2019-Jun-16 01:00N 58°02' E 004°53'1020.7
2019-Jun-16 00:30N 57°52' E 004°50'1020.7
2019-Jun-16 00:00N 57°41' E 004°48'1020.3
2019-Jun-15 23:29N 57°31' E 004°45'1020.1
2019-Jun-15 22:59N 57°21' E 004°42'1020.1
2019-Jun-15 22:29N 57°11' E 004°40'1020.0
2019-Jun-15 21:59N 57°01' E 004°38'4422.1
2019-Jun-15 20:00N 56°18' E 004°24'2424.2 280 / 10
2019-Jun-15 19:00N 55°54' E 004°18'3030.0 270 / 81013.010.8 15.0 14.0
2019-Jun-15 18:00N 55°24' E 004°18'3 3.4 270 / 81013.010.8 15.0 14.0
2019-Jun-15 17:00N 55°24' E 004°12'1818.3 270 / 81013.010.8 15.0 14.0
2019-Jun-15 16:00N 55°06' E 004°06'10518.0 280 / 51012.010.8 14.010.515.0
2019-Jun-15 10:10N 53°26' E 003°11'1319.6
2019-Jun-15 09:29N 53°13' E 003°09'1019.6
2019-Jun-15 09:00N 53°04' E 003°05'1019.4
2019-Jun-15 08:30N 52°55' E 003°01'1019.0
2019-Jun-15 08:00N 52°45' E 002°57'4419.2
2019-Jun-15 08:00N 52°42' E 002°54'611.8 290 / 10
2019-Jun-15 07:30N 52°36' E 002°52'1018.8
2019-Jun-15 07:00N 52°28' E 002°45'816.9
2019-Jun-15 06:30N 52°20' E 002°43'815.7
2019-Jun-15 06:00N 52°12' E 002°42'815.8
2019-Jun-15 05:30N 52°04' E 002°42'816.1
2019-Jun-15 05:00N 51°56' E 002°41'4293.9
2019-Jun-15 05:00N 51°54' E 002°36'511.1 270 / 31011.010.8 12.0 8.313.0
2019-Jun-15 04:30N 51°49' E 002°37'816.8
2019-Jun-15 04:00N 51°42' E 002°29'917.1
2019-Jun-15 03:30N 51°35' E 002°21'917.4
2019-Jun-15 03:00N 51°28' E 002°13'917.6
2019-Jun-15 02:30N 51°19' E 002°09'817.0
2019-Jun-15 02:00N 51°13' E 002°00'917.9
2019-Jun-15 01:30N 51°08' E 001°48'918.4
2019-Jun-15 01:00N 51°02' E 001°38'1227430.8
2019-Jun-15 01:00N 51°00' W 001°36'116240.3 290 / 91013.027.0 14.010.513.0
2019-Jun-15 00:30N 50°54' E 001°28'918.6
2019-Jun-15 00:00N 50°45' E 001°25'917.7
2019-Jun-14 23:28N 50°37' E 001°16'817.9
2019-Jun-14 23:00N 50°32' E 001°06'917.2
2019-Jun-14 22:28N 50°28' E 000°53'817.4
2019-Jun-14 22:00N 50°26' E 000°41'917.5
2019-Jun-14 21:28N 50°25' E 000°26'817.6
2019-Jun-14 21:00N 50°23' E 000°13'5338.9
2019-Jun-14 21:00N 50°18' E 000°12'917.7 090 / 10
2019-Jun-14 20:30N 50°22' W 000°00'918.1
2019-Jun-14 20:00N 50°21' W 000°14'918.5
2019-Jun-14 19:30N 50°25' W 000°28'918.9
2019-Jun-14 19:00N 50°31' W 000°39'1019.6
2019-Jun-14 18:30N 50°37' W 000°51'815.7
2019-Jun-14 18:00N 50°43' W 000°60'815.1
2019-Jun-14 17:31N 50°46' W 001°11'611.0
2019-Jun-14 17:00N 50°49' W 001°18'510.4
2019-Jun-14 16:30N 50°53' W 001°23'2 2.9
2019-Jun-14 15:59N 50°54' W 001°25'0 0.0
2019-Jun-14 15:26N 50°54' W 001°25'0 0.0
2019-Jun-14 13:41N 50°54' W 001°25'0 0.0
2019-Jun-14 13:17N 50°54' W 001°25'0 0.0
2019-Jun-14 13:00N 50°54' W 001°25'0 0.0
2019-Jun-14 12:30N 50°54' W 001°25'0 0.0
2019-Jun-14 12:00N 50°54' W 001°25'0 0.0
2019-Jun-14 11:30N 50°54' W 001°25'0 0.0
2019-Jun-14 10:57N 50°54' W 001°25'0 0.0
2019-Jun-14 10:30N 50°54' W 001°25'0 0.0
2019-Jun-14 09:56N 50°54' W 001°25'0 0.0
2019-Jun-14 09:29N 50°54' W 001°25'0 0.0
2019-Jun-14 08:56N 50°54' W 001°25'0 0.0
2019-Jun-14 08:29N 50°54' W 001°25'0 0.0
2019-Jun-14 08:00N 50°54' W 001°25'0 0.0
2019-Jun-14 07:30N 50°54' W 001°25'0 0.0
2019-Jun-14 07:00N 50°54' W 001°25'0 0.0
2019-Jun-14 06:30N 50°54' W 001°25'0 0.0
2019-Jun-14 06:00N 50°54' W 001°25'0 0.0
2019-Jun-14 05:30N 50°54' W 001°25'0 0.0
2019-Jun-14 05:00N 50°54' W 001°25'0 0.0
2019-Jun-14 04:30N 50°54' W 001°25'0 0.1
2019-Jun-14 04:00N 50°54' W 001°25'2 4.7
2019-Jun-14 03:30N 50°52' W 001°23'5 9.1
2019-Jun-14 03:00N 50°49' W 001°18'4 8.0
2019-Jun-14 02:30N 50°46' W 001°13'917.1
2019-Jun-14 02:00N 50°43' W 001°01'611.2
2019-Jun-14 01:30N 50°39' W 000°54'714.7
2019-Jun-14 01:00N 50°36' W 000°44'918.7
2019-Jun-14 00:30N 50°33' W 000°30'1121.1
2019-Jun-13 23:59N 50°31' W 000°13'1721.1
2019-Jun-13 23:12N 50°31' E 000°13'421.0
2019-Jun-13 23:00N 50°31' E 000°20'1120.4
2019-Jun-13 22:29N 50°35' E 000°35'1020.0
2019-Jun-13 22:00N 50°41' E 000°47'1019.2
2019-Jun-13 21:31N 50°46' E 000°59'918.3
2019-Jun-13 21:00N 50°52' E 001°11'917.7
2019-Jun-13 20:30N 50°58' E 001°22'917.5
2019-Jun-13 20:00N 51°04' E 001°31'4273.3
2019-Jun-13 20:00N 51°00' E 001°30'1326.0 220 / 25
2019-Jun-13 19:30N 51°10' E 001°42'918.6
2019-Jun-13 19:00N 51°18' E 001°50'1019.3
2019-Jun-13 18:30N 51°26' E 001°59'918.6
2019-Jun-13 18:00N 51°22' E 002°12'1019.5
2019-Jun-13 17:30N 51°23' E 002°28'918.6
2019-Jun-13 17:00N 51°23' E 002°43'612.9
2019-Jun-13 16:30N 51°25' E 002°53'917.9
2019-Jun-13 16:00N 51°24' E 003°07'510.0
2019-Jun-13 15:30N 51°20' E 003°12'0 0.0
2019-Jun-13 15:00N 51°20' E 003°12'0 0.0
2019-Jun-13 14:30N 51°20' E 003°12'0 0.0
2019-Jun-13 14:00N 51°20' E 003°12'0 0.0
2019-Jun-13 13:30N 51°20' E 003°12'0 0.0
2019-Jun-13 13:00N 51°20' E 003°12'2463.5
2019-Jun-13 13:00N 51°18' E 003°12'2 4.9 190 / 51010.010.8 13.0 9.413.0
2019-Jun-13 12:30N 51°20' E 003°12'0 0.0
2019-Jun-13 12:00N 51°20' E 003°12'0 0.0
2019-Jun-13 11:27N 51°20' E 003°12'0 0.0
2019-Jun-13 10:54N 51°20' E 003°12'0 0.0
2019-Jun-13 10:30N 51°20' E 003°12'0 0.0
2019-Jun-13 09:57N 51°20' E 003°12'0 0.0
2019-Jun-13 09:30N 51°20' E 003°12'0 0.0
2019-Jun-13 09:00N 51°20' E 003°12'0 0.0
2019-Jun-13 08:30N 51°20' E 003°12'0 0.0
2019-Jun-13 08:00N 51°20' E 003°12'0 0.0
2019-Jun-13 07:30N 51°20' E 003°12'0 0.0
2019-Jun-13 07:00N 51°20' E 003°12'0 0.0
2019-Jun-13 06:30N 51°20' E 003°12'0 0.0
2019-Jun-13 06:00N 51°20' E 003°12'0 0.0
2019-Jun-13 05:30N 51°20' E 003°12'0 0.0
2019-Jun-13 05:00N 51°20' E 003°12'1 2.5
2019-Jun-13 04:30N 51°22' E 003°12'815.4
2019-Jun-13 04:01N 51°25' E 003°00'917.1
2019-Jun-13 03:30N 51°24' E 002°47'714.7
2019-Jun-13 03:00N 51°22' E 002°35'713.2
2019-Jun-13 02:30N 51°29' E 002°34'1019.5
2019-Jun-13 01:58N 51°39' E 002°39'919.2
2019-Jun-13 01:29N 51°48' E 002°38'1019.0
2019-Jun-13 00:57N 51°58' E 002°42'1219.1
2019-Jun-13 00:19N 52°07' E 002°55'618.9
2019-Jun-13 00:00N 52°11' E 003°02'6408.1
2019-Jun-13 00:00N 52°12' E 003°12'5 9.4 190 / 91008.027.0 13.0 9.412.0
2019-Jun-12 23:30N 52°16' E 003°15'918.8
2019-Jun-12 23:01N 52°23' E 003°26'918.6
2019-Jun-12 22:30N 52°29' E 003°38'918.6
2019-Jun-12 22:00N 52°31' E 003°52'918.7
2019-Jun-12 21:30N 52°31' E 004°08'917.7
2019-Jun-12 21:00N 52°30' E 004°22'713.9
2019-Jun-12 20:31N 52°28' E 004°33'2 4.3
2019-Jun-12 20:00N 52°28' E 004°36'1 1.3
2019-Jun-12 19:31N 52°28' E 004°38'3 5.5
2019-Jun-12 19:00N 52°27' E 004°42'4 7.2
2019-Jun-12 18:30N 52°26' E 004°47'3 6.7
2019-Jun-12 18:01N 52°25' E 004°52'3 5.0
2019-Jun-12 17:31N 52°23' E 004°55'0 0.5
2019-Jun-12 17:00N 52°23' E 004°55'0 0.0
2019-Jun-12 16:30N 52°23' E 004°55'0 0.0
2019-Jun-12 16:00N 52°23' E 004°55'0 0.0
2019-Jun-12 15:30N 52°23' E 004°55'0 0.0
2019-Jun-12 15:00N 52°23' E 004°55'0 0.0
2019-Jun-12 14:30N 52°23' E 004°55'0 0.0
2019-Jun-12 14:00N 52°23' E 004°55'30850388.2
2019-Jun-12 14:00N 51°18' W 003°12'308623.8 360 / 21007.010.8 14.010.511.0
2019-Jun-12 13:30N 52°23' E 004°55'0 0.0
2019-Jun-12 13:00N 52°23' E 004°55'0 0.0
2019-Jun-12 12:30N 52°23' E 004°55'0 0.0
2019-Jun-12 11:57N 52°23' E 004°55'0 0.0
2019-Jun-12 11:30N 52°23' E 004°55'0 0.0
2019-Jun-12 10:57N 52°23' E 004°55'0 0.0
2019-Jun-12 10:30N 52°23' E 004°55'0 0.0
2019-Jun-12 10:00N 52°23' E 004°55'0 0.0
2019-Jun-12 09:30N 52°23' E 004°55'0 0.0
2019-Jun-12 09:00N 52°23' E 004°55'0 0.0
2019-Jun-12 08:30N 52°23' E 004°55'0 0.0
2019-Jun-12 08:00N 52°23' E 004°55'0 0.0
2019-Jun-12 07:30N 52°23' E 004°55'0 0.0
2019-Jun-12 07:00N 52°23' E 004°55'0 0.0
2019-Jun-12 06:30N 52°23' E 004°55'0 0.0
2019-Jun-12 05:57N 52°23' E 004°55'0 0.0
2019-Jun-12 05:30N 52°23' E 004°55'0 0.0
2019-Jun-12 05:00N 52°23' E 004°55'1 1.9
2019-Jun-12 04:31N 52°23' E 004°54'3 5.6
2019-Jun-12 04:01N 52°25' E 004°51'4 7.4
2019-Jun-12 03:30N 52°26' E 004°45'4 7.8
2019-Jun-12 03:00N 52°28' E 004°39'3 2.8
2019-Jun-12 02:01N 52°28' E 004°34'3 6.0
2019-Jun-12 01:31N 52°28' E 004°30'713.3
2019-Jun-12 01:00N 52°30' E 004°19'815.4
2019-Jun-12 00:30N 52°32' E 004°07'1019.0
2019-Jun-12 00:00N 52°39' E 003°57'918.9
2019-Jun-11 23:31N 52°49' E 003°58'918.8
2019-Jun-11 23:00N 52°58' E 004°01'918.8
2019-Jun-11 22:30N 53°04' E 004°12'1019.5
2019-Jun-11 22:00N 53°11' E 004°25'918.8
2019-Jun-11 21:30N 53°19' E 004°31'1019.4
2019-Jun-11 21:00N 53°29' E 004°35'298.8
2019-Jun-11 21:00N 53°30' E 004°36'1518.1 220 / 15
2019-Jun-11 20:11N 53°44' E 004°44'211.9
2019-Jun-11 20:00N 53°42' E 004°42'6020.0 220 / 15
2019-Jun-11 17:00N 54°42' E 004°48'1212.5 080 / 61011.0 1.1 13.0 13.0
2019-Jun-11 16:00N 54°54' E 004°42'3129.7 320 / 201011.0 2.2 13.0 9.413.0
2019-Jun-11 14:57N 55°24' E 004°30'5420.0
2019-Jun-11 12:16N 56°18' E 004°24'520.4
2019-Jun-11 12:00N 56°23' E 004°24'1020.2
2019-Jun-11 11:30N 56°33' E 004°22'1020.4
2019-Jun-11 11:00N 56°44' E 004°21'1020.3
2019-Jun-11 10:30N 56°54' E 004°20'1020.5
2019-Jun-11 10:00N 57°04' E 004°18'1020.6
2019-Jun-11 09:29N 57°14' E 004°16'1020.7
2019-Jun-11 09:00N 57°24' E 004°16'1120.7
2019-Jun-11 08:30N 57°35' E 004°14'1020.7
2019-Jun-11 08:00N 57°45' E 004°12'3216.8
2019-Jun-11 08:00N 57°42' E 004°12'1327.2 020 / 211020.010.8 13.0 7.312.0
2019-Jun-11 07:30N 57°55' E 004°11'1020.6
2019-Jun-11 07:00N 58°06' E 004°10'1020.5
2019-Jun-11 06:31N 58°16' E 004°08'816.3
2019-Jun-11 06:00N 58°24' E 004°06'2318.3 020 / 141020.010.8 13.0 12.0
2019-Jun-11 05:59N 58°26' E 004°07'1019.8
2019-Jun-11 05:30N 58°36' E 004°06'1020.1
2019-Jun-11 05:01N 58°45' E 004°04'4241.5
2019-Jun-11 05:00N 58°42' E 004°00'1427.9 030 / 61010.010.8 12.0 8.312.0
2019-Jun-11 04:29N 58°56' E 004°02'1020.6
2019-Jun-11 04:00N 59°06' E 004°01'1020.4
2019-Jun-11 03:30N 59°16' E 004°00'1020.7
2019-Jun-11 03:00N 59°27' E 003°59'1020.7
2019-Jun-11 02:30N 59°37' E 004°00'1020.6
2019-Jun-11 02:00N 59°47' E 004°01'1020.9
2019-Jun-11 01:30N 59°58' E 004°01'1020.7
2019-Jun-11 01:00N 60°08' E 004°01'1020.6
2019-Jun-11 00:30N 60°18' E 004°01'1020.3
2019-Jun-11 00:00N 60°28' E 004°05'1020.3
2019-Jun-10 23:30N 60°38' E 004°11'1020.0
2019-Jun-10 23:00N 60°47' E 004°19'919.0
2019-Jun-10 22:30N 60°51' E 004°37'713.2
2019-Jun-10 22:00N 60°57' E 004°42'1020.0
2019-Jun-10 21:30N 61°03' E 004°58'918.7
2019-Jun-10 21:00N 61°05' E 005°17'918.8
2019-Jun-10 20:30N 61°06' E 005°36'918.7
2019-Jun-10 20:00N 61°08' E 005°55'917.9
2019-Jun-10 19:30N 61°07' E 006°13'917.4
2019-Jun-10 19:00N 61°07' E 006°31'815.8
2019-Jun-10 18:30N 61°10' E 006°47'918.4
2019-Jun-10 18:00N 61°04' E 007°02'41125.6
2019-Jun-10 18:00N 61°00' E 007°00'4 8.8 310 / 101020.010.8 14.0 13.0
2019-Jun-10 17:29N 60°57' E 007°07'5 9.7
2019-Jun-10 17:00N 60°53' E 007°08'1 1.5
2019-Jun-10 16:28N 60°52' E 007°07'0 0.0
2019-Jun-10 15:58N 60°52' E 007°07'0 0.0
2019-Jun-10 15:28N 60°52' E 007°07'0 0.0
2019-Jun-10 14:58N 60°52' E 007°07'0 0.0
2019-Jun-10 14:28N 60°52' E 007°07'0 0.0
2019-Jun-10 13:58N 60°52' E 007°07'0 0.0
2019-Jun-10 13:28N 60°52' E 007°07'0 0.1
2019-Jun-10 12:46N 60°52' E 007°07'0 0.1
2019-Jun-10 12:28N 60°52' E 007°07'0 0.0
2019-Jun-10 11:58N 60°52' E 007°07'0 0.0
2019-Jun-10 11:28N 60°52' E 007°07'0 0.0
2019-Jun-10 10:58N 60°52' E 007°07'0 0.0
2019-Jun-10 10:25N 60°52' E 007°07'0 0.0
2019-Jun-10 09:58N 60°52' E 007°07'0 0.0
2019-Jun-10 09:28N 60°52' E 007°07'0 0.0
2019-Jun-10 08:58N 60°52' E 007°07'0 0.0
2019-Jun-10 08:28N 60°52' E 007°07'0 0.0
2019-Jun-10 07:58N 60°52' E 007°07'0 0.0
2019-Jun-10 07:28N 60°52' E 007°07'0 0.0
2019-Jun-10 06:58N 60°52' E 007°07'0 0.0
2019-Jun-10 06:30N 60°52' E 007°07'1 1.2
2019-Jun-10 06:00N 60°52' E 007°08'4 8.9
2019-Jun-10 05:30N 60°57' E 007°09'713.5
2019-Jun-10 05:00N 61°02' E 007°02'714.2
2019-Jun-10 04:30N 61°08' E 006°53'714.7
2019-Jun-10 04:00N 61°11' E 006°39'5494.1
2019-Jun-10 04:00N 61°06' E 006°42'613.1 310 / 51014.010.8 13.0 9.414.0
2019-Jun-10 03:30N 61°06' E 006°29'815.0
2019-Jun-10 02:59N 61°07' E 006°13'815.3
2019-Jun-10 02:30N 61°08' E 005°58'815.2
2019-Jun-10 02:00N 61°07' E 005°42'815.9
2019-Jun-10 01:30N 61°04' E 005°27'816.0
2019-Jun-10 01:00N 61°06' E 005°12'815.4
2019-Jun-10 00:30N 61°12' E 005°01'815.7
2019-Jun-10 00:00N 61°15' E 004°45'918.6
2019-Jun-09 23:30N 61°17' E 004°27'1020.0
2019-Jun-09 23:00N 61°27' E 004°25'1020.2
2019-Jun-09 22:30N 61°37' E 004°25'1020.0
2019-Jun-09 22:00N 61°47' E 004°29'1020.2
2019-Jun-09 21:30N 61°56' E 004°36'1020.3
2019-Jun-09 21:00N 62°05' E 004°45'1019.8
2019-Jun-09 20:30N 62°14' E 004°57'1019.9
2019-Jun-09 20:00N 62°21' E 005°12'4428.1
2019-Jun-09 20:00N 62°18' E 005°06'1428.0 220 / 20
2019-Jun-09 19:30N 62°27' E 005°29'1019.8
2019-Jun-09 19:00N 62°27' E 005°50'918.0
2019-Jun-09 18:28N 62°23' E 006°08'918.7
2019-Jun-09 18:00N 62°25' E 006°27'1118.6
2019-Jun-09 17:26N 62°27' E 006°49'716.8
2019-Jun-09 17:00N 62°20' E 006°56'38666137.2
2019-Jun-09 17:00N 62°18' W 006°54'389792.6 340 / 171010.010.8 15.0 14.0
2019-Jun-09 16:30N 62°12' E 007°02'713.7
2019-Jun-09 16:00N 62°05' E 007°02'4 9.1
2019-Jun-09 15:30N 62°06' E 007°11'0 0.8
2019-Jun-09 14:59N 62°06' E 007°12'0 0.0
2019-Jun-09 14:29N 62°06' E 007°12'0 0.0
2019-Jun-09 13:59N 62°06' E 007°12'0 0.0
2019-Jun-09 13:29N 62°06' E 007°12'0 0.0
2019-Jun-09 12:59N 62°06' E 007°12'0 0.0
2019-Jun-09 12:24N 62°06' E 007°12'0 0.0
2019-Jun-09 11:59N 62°06' E 007°12'0 0.0
2019-Jun-09 11:29N 62°06' E 007°12'0 0.0
2019-Jun-09 10:59N 62°06' E 007°12'0 0.0
2019-Jun-09 10:29N 62°06' E 007°12'0 0.0
2019-Jun-09 09:59N 62°06' E 007°12'0 0.0
2019-Jun-09 09:29N 62°06' E 007°12'0 0.0
2019-Jun-09 08:59N 62°06' E 007°12'0 0.0
2019-Jun-09 08:29N 62°06' E 007°12'0 0.0
2019-Jun-09 07:59N 62°06' E 007°12'0 0.0
2019-Jun-09 07:29N 62°06' E 007°12'0 0.0
2019-Jun-09 06:44N 62°06' E 007°12'0 0.0
2019-Jun-09 06:26N 62°06' E 007°12'0 0.0
2019-Jun-09 05:56N 62°06' E 007°12'0 0.0
2019-Jun-09 05:26N 62°06' E 007°12'0 0.2
2019-Jun-09 05:00N 62°06' E 007°12'7 6.8
2019-Jun-09 04:00N 62°09' E 006°58'918.1
2019-Jun-09 03:30N 62°18' E 007°01'918.1
2019-Jun-09 03:00N 62°26' E 006°53'917.7
2019-Jun-09 02:30N 62°26' E 006°34'1020.2
2019-Jun-09 02:00N 62°23' E 006°14'816.3
2019-Jun-09 01:30N 62°26' E 005°58'715.1
2019-Jun-09 01:00N 62°30' E 005°44'1020.3
2019-Jun-09 00:30N 62°34' E 005°23'1020.4
2019-Jun-09 00:00N 62°38' E 005°02'1020.5
2019-Jun-08 23:30N 62°41' E 004°42'1020.8
2019-Jun-08 23:00N 62°45' E 004°21'5318.8
2019-Jun-08 23:00N 62°48' E 004°12'611.6 050 / 25
2019-Jun-08 22:30N 62°50' E 004°00'1020.4
2019-Jun-08 22:00N 62°54' E 003°40'169.0
2019-Jun-08 22:00N 62°54' E 003°42'1122.8 050 / 25
2019-Jun-08 21:30N 62°58' E 003°19'1020.3
2019-Jun-08 21:00N 63°01' E 002°58'2179.1
2019-Jun-08 21:00N 63°00' E 003°00'2222.5 050 / 25
2019-Jun-08 20:00N 63°12' E 002°18'2019.8 050 / 191013.0 0.1 9.0 4.910.0
2019-Jun-08 19:00N 63°18' E 001°36'2019.8 050 / 191013.0 0.1 9.0 4.910.0
2019-Jun-08 18:00N 63°24' E 000°54'2019.7 050 / 191013.0 0.1 9.0 4.910.0
2019-Jun-08 17:00N 63°30' E 000°12'18523.1 050 / 191013.0 0.1 9.0 4.910.0
2019-Jun-08 09:00N 64°54' W 006°06'7 6.5 230 / 201010.0 0.1 5.0-2.5 6.0
2019-Jun-08 08:00N 64°48' W 006°00'2423.6 230 / 201010.0 0.1 5.0-2.5 6.0
2019-Jun-08 07:00N 65°00' W 006°48'2121.1 240 / 201008.0 0.1 5.0-2.5 6.0
2019-Jun-08 06:00N 65°06' W 007°36'9223.1 030 / 161021.0 0.1 5.0-2.5 6.0
2019-Jun-08 02:00N 65°48' W 010°54'8120.3 350 / 351012.0 1.1 3.0-2.0 5.0
2019-Jun-07 22:00N 66°18' W 014°00'2726.9 360 / 30
2019-Jun-07 21:00N 66°30' W 015°00'1919.1 030 / 161020.027.0 10.0 6.010.0
2019-Jun-07 20:00N 66°30' W 015°48'4522.4 030 / 161020.027.0 10.0 6.010.0
2019-Jun-07 18:00N 66°18' W 017°36'25 1.7 070 / 151020.0 10.0 6.010.0
2019-Jun-07 03:00N 66°06' W 018°30'10325.7 100 / 191024.027.0 3.0-2.0 7.0
2019-Jun-06 23:00N 66°42' W 022°30'   360 / 101016.010.8 9.0 10.0

Dump ship's entire track history